aviador You're here:

ZMUB Decoded Metar

ULAN BATOR in MONGOLIA
Report Time2018-06-25 11:30:00
UTC Time2018-06-25 11:57:54
Flight Rules vfr VFR
Wind340° at 14 kt
W.Decomp.*RWY 33: 13.6 kt HW 3.1 kt RCW
RWY 32: 12.9 kt HW 5.5 kt RCW
W.Rank340° ranks 1
Current wind is above 340° avg. (11.5)
Visibility9999 m
Phenomena:N/A
Clouds:Few CB 030 Hf
Few 033 Hf
Expected CloudBase > 6,400 ft AGL from Temp-Dew spread
CeilingNone
Temp20°C (ISA +14)
Dew Point04°C (35% RH)
AAT13.7°C
QNH1009 hPa
Density Alt6,194 ft
Elevation4,364 ft
Report Wrong Elevation
Raw Report
ZMUB 251130Z 34007MPS 9999 FEW030CB FEW033 20/04 Q1009 NOSIG RMK
QFE650.0 32 MOP=

Extra information for ZMUB:More info

Metar Taf Metar & Taf Last 4 Metars F.Rules Stats Wind Profile Meteogram Temp Stats Airport Information Weather charts Add Link Nearby VenuesMetar ALERT Operation Metar Decoded Social comments